createdAt,value
2017-12-14T05:00:38.744Z,0
2017-12-14T05:01:04.215Z,0
2017-12-14T05:01:29.694Z,0
2017-12-14T05:01:55.210Z,0
2017-12-14T05:02:20.677Z,0
2017-12-14T05:02:46.166Z,0
2017-12-14T05:03:11.640Z,0
2017-12-14T05:03:37.114Z,0
2017-12-14T05:04:02.610Z,0
2017-12-14T05:04:28.112Z,0
2017-12-14T05:04:53.611Z,0
2017-12-14T05:05:19.116Z,0
2017-12-14T05:05:44.632Z,0
2017-12-14T05:06:10.105Z,0
2017-12-14T05:06:35.617Z,0
2017-12-14T05:07:01.118Z,0
2017-12-14T05:07:26.577Z,0
2017-12-14T05:07:52.083Z,0
2017-12-14T05:08:17.553Z,0
2017-12-14T05:08:43.061Z,0
2017-12-14T05:09:08.523Z,0
2017-12-14T05:09:34.006Z,0
2017-12-14T05:09:59.476Z,0
2017-12-14T05:10:24.923Z,0
2017-12-14T05:10:50.442Z,0
2017-12-14T05:11:15.896Z,0
2017-12-14T05:11:41.358Z,0
2017-12-14T05:12:06.836Z,0
2017-12-14T05:12:32.277Z,0
2017-12-14T05:12:57.745Z,0
2017-12-14T05:13:23.267Z,0
2017-12-14T05:13:48.653Z,0
2017-12-14T05:14:14.153Z,0
2017-12-14T05:14:39.643Z,0
2017-12-14T05:15:05.184Z,0
2017-12-14T05:15:30.601Z,0
2017-12-14T05:15:56.086Z,0
2017-12-14T05:16:21.557Z,0
2017-12-14T05:16:47.041Z,0
2017-12-14T05:17:12.505Z,0
2017-12-14T05:17:38.006Z,0
2017-12-14T05:18:03.497Z,0
2017-12-14T05:18:28.958Z,0
2017-12-14T05:18:54.422Z,0
2017-12-14T05:19:19.942Z,0
2017-12-14T05:19:45.448Z,0
2017-12-14T05:20:10.949Z,0
2017-12-14T05:20:36.433Z,0
2017-12-14T05:21:01.907Z,0
2017-12-14T05:21:27.381Z,0
2017-12-14T05:21:52.864Z,0
2017-12-14T05:22:18.352Z,0
2017-12-14T05:22:43.835Z,0
2017-12-14T05:23:52.535Z,0
2017-12-14T05:24:18.051Z,0
2017-12-14T05:24:43.527Z,0
2017-12-14T05:25:08.998Z,0
2017-12-14T05:25:34.454Z,0
2017-12-14T05:25:59.948Z,0
2017-12-14T05:27:08.153Z,0
2017-12-14T05:27:33.647Z,0
2017-12-14T05:27:59.155Z,0
2017-12-14T05:28:24.677Z,0
2017-12-14T05:28:50.140Z,0
2017-12-14T05:29:15.630Z,0
2017-12-14T05:29:41.088Z,0
2017-12-14T05:30:06.605Z,0
2017-12-14T05:30:32.106Z,0
2017-12-14T05:30:57.638Z,0
2017-12-14T05:31:23.071Z,0
2017-12-14T05:31:48.621Z,0
2017-12-14T05:32:14.148Z,0
2017-12-14T05:32:39.866Z,0
2017-12-14T05:33:05.053Z,0
2017-12-14T05:33:30.530Z,0
2017-12-14T05:33:56.075Z,0
2017-12-14T05:34:21.471Z,0
2017-12-14T05:34:46.924Z,0
2017-12-14T05:35:12.465Z,0
2017-12-14T05:35:38.219Z,0
2017-12-14T05:36:03.354Z,0
2017-12-14T05:36:28.845Z,0
2017-12-14T05:36:54.245Z,0
2017-12-14T05:37:19.729Z,0
2017-12-14T05:37:45.217Z,0
2017-12-14T05:38:10.682Z,0
2017-12-14T05:39:14.284Z,0
2017-12-14T05:39:39.778Z,0
2017-12-14T05:40:05.259Z,0
2017-12-14T05:40:30.723Z,0
2017-12-14T05:41:49.641Z,0
2017-12-14T05:42:15.184Z,0
2017-12-14T05:42:40.613Z,0
2017-12-14T05:43:06.072Z,0
2017-12-14T05:43:31.545Z,0
2017-12-14T05:43:57.037Z,0
2017-12-14T05:44:22.494Z,0
2017-12-14T05:44:47.949Z,0
2017-12-14T05:45:13.480Z,0
2017-12-14T05:45:38.963Z,0
2017-12-14T05:46:04.514Z,0
2017-12-14T05:46:29.998Z,0
2017-12-14T05:46:55.490Z,0
2017-12-14T05:47:20.985Z,0
2017-12-14T05:47:46.468Z,0
2017-12-14T05:48:11.997Z,0
2017-12-14T05:48:37.483Z,0
2017-12-14T05:49:02.991Z,0
2017-12-14T05:49:28.491Z,0
2017-12-14T05:49:53.957Z,0
2017-12-14T05:50:19.457Z,0
2017-12-14T05:50:44.921Z,0
2017-12-14T05:51:10.406Z,0
2017-12-14T05:51:35.891Z,0
2017-12-14T05:52:01.406Z,0
2017-12-14T05:53:25.597Z,0
2017-12-14T05:53:51.075Z,0
2017-12-14T05:54:16.591Z,0
2017-12-14T05:54:42.094Z,0
2017-12-14T05:55:07.542Z,0
2017-12-14T05:55:33.015Z,0
2017-12-14T05:55:58.470Z,0
2017-12-14T05:56:23.946Z,0
2017-12-14T05:56:49.477Z,0
2017-12-14T05:57:14.967Z,0
2017-12-14T05:57:40.431Z,0
2017-12-14T05:58:05.951Z,0
2017-12-14T05:58:31.488Z,0
2017-12-14T05:58:56.954Z,0
2017-12-14T05:59:22.451Z,0
2017-12-14T05:59:47.968Z,0
2017-12-14T06:00:13.470Z,0
2017-12-14T06:00:38.957Z,0
2017-12-14T06:01:04.462Z,0
2017-12-14T06:01:29.964Z,0
2017-12-14T06:01:55.440Z,0
2017-12-14T06:02:20.900Z,0
2017-12-14T06:02:46.393Z,0
2017-12-14T06:03:11.855Z,0
2017-12-14T06:03:37.358Z,0
2017-12-14T06:04:02.859Z,0
2017-12-14T06:04:28.353Z,0
2017-12-14T06:04:53.861Z,0
2017-12-14T06:05:19.371Z,0
2017-12-14T06:05:44.838Z,0
2017-12-14T06:06:10.316Z,0
2017-12-14T06:06:35.793Z,0
2017-12-14T06:07:01.275Z,0
2017-12-14T06:07:26.773Z,0
2017-12-14T06:07:52.236Z,0
2017-12-14T06:08:17.761Z,0
2017-12-14T06:08:43.234Z,0
2017-12-14T06:09:08.722Z,0
2017-12-14T06:09:34.188Z,0
2017-12-14T06:09:59.713Z,0
2017-12-14T06:10:25.163Z,0
2017-12-14T06:10:50.673Z,0
2017-12-14T06:11:16.150Z,0
2017-12-14T06:12:41.140Z,0
2017-12-14T06:13:06.631Z,0
2017-12-14T06:13:32.140Z,0
2017-12-14T06:13:57.638Z,0
2017-12-14T06:14:23.083Z,0
2017-12-14T06:14:48.545Z,0
2017-12-14T06:15:14.058Z,0
2017-12-14T06:15:39.524Z,0
2017-12-14T06:16:05.024Z,0
2017-12-14T06:16:30.530Z,0
2017-12-14T06:17:44.322Z,0
2017-12-14T06:18:09.860Z,0
2017-12-14T06:18:35.381Z,0
2017-12-14T06:19:00.853Z,0
2017-12-14T06:19:26.425Z,0
2017-12-14T06:20:45.247Z,0
2017-12-14T06:21:10.743Z,0
2017-12-14T06:21:36.227Z,0
2017-12-14T06:22:01.719Z,0
2017-12-14T06:22:27.190Z,0
2017-12-14T06:22:52.675Z,0
2017-12-14T06:23:18.173Z,0
2017-12-14T06:23:43.641Z,0
2017-12-14T06:24:09.188Z,0
2017-12-14T06:24:34.682Z,0
2017-12-14T06:25:00.228Z,0
2017-12-14T06:25:25.668Z,0
2017-12-14T06:25:51.164Z,0
2017-12-14T06:26:16.725Z,0
2017-12-14T06:26:42.163Z,0
2017-12-14T06:27:07.648Z,0
2017-12-14T06:27:33.161Z,0
2017-12-14T06:27:58.665Z,0
2017-12-14T06:28:24.182Z,0
2017-12-14T06:28:49.665Z,0
2017-12-14T06:30:13.646Z,0
2017-12-14T06:30:39.139Z,0
2017-12-14T06:31:04.632Z,0
2017-12-14T06:31:30.062Z,0
2017-12-14T06:31:55.558Z,0
2017-12-14T06:32:21.060Z,0
2017-12-14T06:32:46.556Z,0
2017-12-14T06:33:12.045Z,0
2017-12-14T06:33:37.531Z,0
2017-12-14T06:34:03.044Z,0
2017-12-14T06:34:28.534Z,0
2017-12-14T06:34:54.011Z,0
2017-12-14T06:35:19.495Z,0
2017-12-14T06:36:28.167Z,0
2017-12-14T06:36:53.653Z,0
2017-12-14T06:37:19.148Z,0
2017-12-14T06:37:44.646Z,0
2017-12-14T06:38:10.142Z,0
2017-12-14T06:38:35.659Z,0
2017-12-14T06:39:01.172Z,0
2017-12-14T06:39:26.698Z,0
2017-12-14T06:39:52.135Z,0
2017-12-14T06:40:17.647Z,0
2017-12-14T06:40:43.122Z,0
2017-12-14T06:41:08.595Z,0
2017-12-14T06:41:34.069Z,0
2017-12-14T06:41:59.577Z,0
2017-12-14T06:42:25.073Z,0
2017-12-14T06:43:49.101Z,0
2017-12-14T06:44:14.557Z,0
2017-12-14T06:44:40.072Z,0
2017-12-14T06:45:05.551Z,0
2017-12-14T06:45:31.019Z,0
2017-12-14T06:45:56.471Z,0
2017-12-14T06:46:22.000Z,0
2017-12-14T06:46:47.473Z,0
2017-12-14T06:47:12.966Z,0
2017-12-14T06:47:38.459Z,0
2017-12-14T06:48:03.941Z,0
2017-12-14T06:48:29.439Z,0
2017-12-14T06:48:54.917Z,0
2017-12-14T06:49:20.425Z,0
2017-12-14T06:49:45.917Z,0
2017-12-14T06:50:11.408Z,0
2017-12-14T06:50:36.913Z,0
2017-12-14T06:51:02.427Z,0
2017-12-14T06:51:27.920Z,0
2017-12-14T06:51:53.402Z,0
2017-12-14T06:52:18.887Z,0
2017-12-14T06:52:44.378Z,0
2017-12-14T06:53:09.828Z,0
2017-12-14T06:53:35.310Z,0
2017-12-14T06:54:00.817Z,0
2017-12-14T06:54:26.299Z,0
2017-12-14T06:54:51.762Z,0
2017-12-14T06:55:17.244Z,0
2017-12-14T06:55:42.714Z,0
2017-12-14T06:56:08.217Z,0
2017-12-14T06:56:33.705Z,0
2017-12-14T06:56:59.190Z,0
2017-12-14T06:57:24.686Z,0
2017-12-14T06:57:50.162Z,0
2017-12-14T06:58:15.679Z,0
2017-12-14T06:58:41.197Z,0
2017-12-14T06:59:06.685Z,0
2017-12-14T06:59:32.175Z,4
2017-12-14T06:59:57.661Z,4
2017-12-14T07:00:23.140Z,4
2017-12-14T07:00:48.638Z,0
2017-12-14T07:01:14.166Z,4
2017-12-14T07:01:39.633Z,4
2017-12-14T07:02:05.131Z,4
2017-12-14T07:03:13.812Z,4
2017-12-14T07:03:39.309Z,4
2017-12-14T07:04:04.812Z,0
2017-12-14T07:04:30.308Z,0
2017-12-14T07:04:55.803Z,0
2017-12-14T07:05:21.292Z,4
2017-12-14T07:05:46.793Z,4
2017-12-14T07:06:12.301Z,4
2017-12-14T07:06:37.825Z,4
2017-12-14T07:07:03.288Z,4
2017-12-14T07:07:28.789Z,4
2017-12-14T07:07:54.290Z,4
2017-12-14T07:08:19.781Z,4
2017-12-14T07:08:45.246Z,4
2017-12-14T07:09:10.731Z,4
2017-12-14T07:09:36.231Z,4
2017-12-14T07:10:01.741Z,4
2017-12-14T07:10:27.245Z,4
2017-12-14T07:10:52.726Z,8
2017-12-14T07:11:18.195Z,8
2017-12-14T07:11:43.690Z,12
2017-12-14T07:12:09.167Z,12
2017-12-14T07:12:34.684Z,12
2017-12-14T07:13:00.150Z,12
2017-12-14T07:13:25.671Z,8
2017-12-14T07:13:51.174Z,12
2017-12-14T07:14:16.667Z,12
2017-12-14T07:14:42.141Z,16
2017-12-14T07:16:01.075Z,16
2017-12-14T07:16:26.563Z,20
2017-12-14T07:16:52.056Z,20
2017-12-14T07:17:17.521Z,20
2017-12-14T07:17:43.031Z,16
2017-12-14T07:18:08.526Z,12
2017-12-14T07:18:34.048Z,12
2017-12-14T07:18:59.510Z,12
2017-12-14T07:19:24.994Z,12
2017-12-14T07:19:50.455Z,12
2017-12-14T07:20:15.956Z,12
2017-12-14T07:20:41.409Z,12
2017-12-14T07:21:06.888Z,12
2017-12-14T07:21:32.368Z,16
2017-12-14T07:21:57.874Z,12
2017-12-14T07:22:23.376Z,16
2017-12-14T07:22:48.854Z,20
2017-12-14T07:23:14.344Z,20
2017-12-14T07:23:39.828Z,24
2017-12-14T07:24:05.342Z,20
2017-12-14T07:24:30.822Z,24
2017-12-14T07:24:56.333Z,24
2017-12-14T07:26:15.262Z,32
2017-12-14T07:26:40.779Z,32
2017-12-14T07:27:06.264Z,36
2017-12-14T07:27:31.776Z,36
2017-12-14T07:27:57.223Z,36
2017-12-14T07:28:22.762Z,40
2017-12-14T07:28:48.250Z,48
2017-12-14T07:29:13.743Z,56
2017-12-14T07:29:39.224Z,64
2017-12-14T07:30:04.731Z,68
2017-12-14T07:30:30.207Z,64
2017-12-14T07:30:55.687Z,80
2017-12-14T07:31:21.199Z,88
2017-12-14T07:31:46.722Z,96
2017-12-14T07:32:12.207Z,108
2017-12-14T07:32:37.693Z,124
2017-12-14T07:33:03.194Z,132
2017-12-14T07:33:28.691Z,128
2017-12-14T07:33:54.187Z,116
2017-12-14T07:34:19.685Z,128
2017-12-14T07:34:45.162Z,132
2017-12-14T07:35:10.693Z,128
2017-12-14T07:35:36.166Z,132
2017-12-14T07:36:01.681Z,136
2017-12-14T07:36:27.178Z,136
2017-12-14T07:36:52.676Z,140
2017-12-14T07:37:18.172Z,156
2017-12-14T07:37:43.669Z,172
2017-12-14T07:38:09.142Z,184
2017-12-14T07:38:34.634Z,192
2017-12-14T07:39:00.117Z,188
2017-12-14T07:39:25.621Z,192
2017-12-14T07:39:51.110Z,188
2017-12-14T07:40:16.605Z,176
2017-12-14T07:40:42.091Z,180
2017-12-14T07:41:07.603Z,184
2017-12-14T07:41:33.072Z,188
2017-12-14T07:41:58.535Z,180
2017-12-14T07:42:24.007Z,172
2017-12-14T07:42:49.532Z,172
2017-12-14T07:43:15.006Z,176
2017-12-14T07:43:40.483Z,172
2017-12-14T07:44:05.980Z,176
2017-12-14T07:44:31.680Z,152
2017-12-14T07:44:57.174Z,144
2017-12-14T07:45:22.707Z,144
2017-12-14T07:45:48.185Z,120
2017-12-14T07:46:13.682Z,116
2017-12-14T07:46:39.193Z,132
2017-12-14T07:47:04.779Z,168
2017-12-14T07:47:30.229Z,152
2017-12-14T07:47:55.706Z,124
2017-12-14T07:48:21.333Z,96
2017-12-14T07:48:46.831Z,96
2017-12-14T07:49:12.295Z,104
2017-12-14T07:49:37.796Z,104
2017-12-14T07:50:03.286Z,96
2017-12-14T07:51:12.006Z,64
2017-12-14T07:51:37.498Z,72
2017-12-14T07:52:02.984Z,72
2017-12-14T07:52:28.487Z,76
2017-12-14T07:52:53.997Z,88
2017-12-14T07:54:12.942Z,116
2017-12-14T07:54:38.438Z,128
2017-12-14T07:55:03.939Z,100
2017-12-14T07:55:29.440Z,92
2017-12-14T07:55:54.960Z,92
2017-12-14T07:56:20.430Z,96
2017-12-14T07:56:45.905Z,100
2017-12-14T07:57:11.394Z,112
2017-12-14T07:57:36.877Z,120
2017-12-14T07:58:02.381Z,152
2017-12-14T07:58:27.883Z,172
2017-12-14T07:58:53.395Z,188
2017-12-14T07:59:18.872Z,228
2017-12-14T07:59:44.359Z,256
2017-12-14T08:00:09.853Z,256
2017-12-14T08:00:35.338Z,292
2017-12-14T08:01:00.818Z,344
2017-12-14T08:01:26.300Z,396
2017-12-14T08:01:51.767Z,376
2017-12-14T08:02:17.256Z,408
2017-12-14T08:02:42.771Z,400
2017-12-14T08:03:08.278Z,348
2017-12-14T08:04:27.193Z,340
2017-12-14T08:04:52.698Z,304
2017-12-14T08:05:18.199Z,336
2017-12-14T08:05:43.675Z,396
2017-12-14T08:06:09.145Z,412
2017-12-14T08:06:34.618Z,416
2017-12-14T08:07:00.104Z,376
2017-12-14T08:07:25.577Z,384
2017-12-14T08:07:51.027Z,384
2017-12-14T08:08:16.520Z,276
2017-12-14T08:08:42.030Z,268
2017-12-14T08:09:07.523Z,364
2017-12-14T08:09:33.010Z,348
2017-12-14T08:09:58.502Z,280
2017-12-14T08:10:23.993Z,316
2017-12-14T08:10:49.505Z,340
2017-12-14T08:11:15.003Z,308
2017-12-14T08:11:40.532Z,324
2017-12-14T08:12:06.042Z,332
2017-12-14T08:12:31.521Z,368
2017-12-14T08:12:57.015Z,388
2017-12-14T08:13:22.502Z,464
2017-12-14T08:13:47.984Z,520
2017-12-14T08:14:13.471Z,576
2017-12-14T08:14:38.991Z,548
2017-12-14T08:16:02.996Z,552
2017-12-14T08:16:28.486Z,540
2017-12-14T08:16:53.980Z,460
2017-12-14T08:17:19.461Z,496
2017-12-14T08:17:44.952Z,532
2017-12-14T08:18:10.454Z,580
2017-12-14T08:18:35.944Z,668
2017-12-14T08:19:01.421Z,692
2017-12-14T08:19:26.950Z,748
2017-12-14T08:19:52.456Z,728
2017-12-14T08:20:17.932Z,716
2017-12-14T08:20:43.401Z,692
2017-12-14T08:21:08.894Z,708
2017-12-14T08:21:34.379Z,760
2017-12-14T08:21:59.876Z,800
2017-12-14T08:22:25.377Z,844
2017-12-14T08:22:50.894Z,872
2017-12-14T08:23:16.355Z,876
2017-12-14T08:23:41.855Z,876
2017-12-14T08:24:07.322Z,956
2017-12-14T08:24:32.810Z,932
2017-12-14T08:24:58.278Z,924
2017-12-14T08:25:23.764Z,976
2017-12-14T08:25:49.251Z,988
2017-12-14T08:26:14.757Z,1096
2017-12-14T08:26:40.249Z,1100
2017-12-14T08:27:05.737Z,1116
2017-12-14T08:27:31.234Z,1156
2017-12-14T08:27:56.710Z,1140
2017-12-14T08:28:22.217Z,1104
2017-12-14T08:28:47.711Z,1272
2017-12-14T08:29:13.214Z,1332
2017-12-14T08:29:38.701Z,1260
2017-12-14T08:30:04.210Z,1252
2017-12-14T08:30:29.684Z,1232
2017-12-14T08:30:55.181Z,1156
2017-12-14T08:31:20.675Z,1236
2017-12-14T08:31:46.184Z,1152
2017-12-14T08:32:11.663Z,1108
2017-12-14T08:32:37.202Z,1056
2017-12-14T08:33:02.673Z,984
2017-12-14T08:33:28.179Z,952
2017-12-14T08:33:53.669Z,960
2017-12-14T08:34:19.172Z,952
2017-12-14T08:34:44.630Z,1036
2017-12-14T08:35:10.088Z,1140
2017-12-14T08:35:35.600Z,972
2017-12-14T08:36:01.060Z,1084
2017-12-14T08:36:26.546Z,1092
2017-12-14T08:36:52.081Z,1080
2017-12-14T08:37:17.584Z,1148
2017-12-14T08:37:43.079Z,1152
2017-12-14T08:38:08.592Z,1144
2017-12-14T08:38:34.081Z,1160
2017-12-14T08:38:59.579Z,1156
2017-12-14T08:39:25.091Z,1120
2017-12-14T08:39:50.559Z,1064
2017-12-14T08:40:16.078Z,976
2017-12-14T08:40:41.562Z,984
2017-12-14T08:41:07.060Z,1044
2017-12-14T08:41:32.583Z,1160
2017-12-14T08:41:58.064Z,1404
2017-12-14T08:42:23.560Z,1588
2017-12-14T08:42:49.083Z,1500
2017-12-14T08:43:14.578Z,1412
2017-12-14T08:43:40.065Z,1340
2017-12-14T08:44:05.557Z,1572
2017-12-14T08:44:31.056Z,1664
2017-12-14T08:44:56.560Z,1480
2017-12-14T08:45:22.065Z,1388
2017-12-14T08:45:47.533Z,1472
2017-12-14T08:46:13.065Z,1340
2017-12-14T08:46:38.548Z,1252
2017-12-14T08:47:04.042Z,1224
2017-12-14T08:47:29.543Z,1228
2017-12-14T08:47:55.033Z,1196
2017-12-14T08:48:20.528Z,1192
2017-12-14T08:48:46.005Z,1228
2017-12-14T08:49:11.514Z,1272
2017-12-14T08:49:36.980Z,1368
2017-12-14T08:50:02.451Z,1456
2017-12-14T08:50:27.942Z,1452
2017-12-14T08:50:53.417Z,1436
2017-12-14T08:51:18.926Z,1804
2017-12-14T08:51:44.400Z,1712
2017-12-14T08:52:09.921Z,1480
2017-12-14T08:52:35.402Z,1224
2017-12-14T08:53:00.884Z,1168
2017-12-14T08:53:26.383Z,1160
2017-12-14T08:53:51.868Z,1304
2017-12-14T08:54:17.382Z,1372
2017-12-14T08:54:42.932Z,1240
2017-12-14T08:55:08.436Z,1108
2017-12-14T08:55:33.922Z,1136
2017-12-14T08:55:59.448Z,1524
2017-12-14T08:56:24.953Z,1792
2017-12-14T08:56:50.445Z,1964
2017-12-14T08:57:15.981Z,1864
2017-12-14T08:57:41.506Z,1796
2017-12-14T08:58:07.041Z,1860
2017-12-14T08:58:32.477Z,1836
2017-12-14T08:58:57.993Z,1536
2017-12-14T08:59:23.478Z,1480
2017-12-14T08:59:48.987Z,1384
2017-12-14T09:00:14.492Z,1200
2017-12-14T09:00:40.004Z,964
2017-12-14T09:01:05.505Z,812
2017-12-14T09:01:30.996Z,816
2017-12-14T09:01:56.483Z,860
2017-12-14T09:02:21.974Z,864
2017-12-14T09:02:47.455Z,932
2017-12-14T09:03:12.947Z,1036
2017-12-14T09:03:38.436Z,1060
2017-12-14T09:04:03.941Z,1100
2017-12-14T09:04:29.454Z,1308
2017-12-14T09:04:54.923Z,1696
2017-12-14T09:05:20.386Z,1844
2017-12-14T09:05:45.865Z,2136
2017-12-14T09:06:11.363Z,2624
2017-12-14T09:06:36.855Z,2324
2017-12-14T09:07:02.350Z,2160
2017-12-14T09:07:27.829Z,2316
2017-12-14T09:07:53.345Z,2900
2017-12-14T09:08:18.810Z,2972
2017-12-14T09:08:44.308Z,2952
2017-12-14T09:09:09.791Z,3204
2017-12-14T09:09:35.331Z,3284
2017-12-14T09:10:00.814Z,3512
2017-12-14T09:10:26.278Z,3516
2017-12-14T09:10:51.793Z,3216
2017-12-14T09:11:17.300Z,3456
2017-12-14T09:11:42.800Z,3772
2017-12-14T09:12:08.294Z,4312
2017-12-14T09:12:33.820Z,4860
2017-12-14T09:12:59.317Z,4728
2017-12-14T09:13:24.783Z,4320
2017-12-14T09:13:50.276Z,4092
2017-12-14T09:14:15.754Z,4432
2017-12-14T09:14:41.222Z,4204
2017-12-14T09:15:06.733Z,3620
2017-12-14T09:15:32.236Z,3780
2017-12-14T09:15:57.707Z,3624
2017-12-14T09:16:23.160Z,3884
2017-12-14T09:16:48.625Z,4184
2017-12-14T09:17:14.145Z,4032
2017-12-14T09:17:39.624Z,4012
2017-12-14T09:18:05.100Z,3928
2017-12-14T09:18:30.607Z,3444
2017-12-14T09:18:56.097Z,3528
2017-12-14T09:19:21.576Z,3220
2017-12-14T09:19:47.070Z,3052
2017-12-14T09:20:12.554Z,3040
2017-12-14T09:20:38.045Z,3136
2017-12-14T09:21:03.547Z,3196
2017-12-14T09:21:29.073Z,2808
2017-12-14T09:21:54.671Z,2744
2017-12-14T09:22:20.135Z,3280
2017-12-14T09:22:45.628Z,3856
2017-12-14T09:23:11.115Z,4176
2017-12-14T09:23:36.607Z,4176
2017-12-14T09:24:02.088Z,4128
2017-12-14T09:24:27.660Z,4800
2017-12-14T09:25:51.689Z,4896
2017-12-14T09:26:17.190Z,4712
2017-12-14T09:26:42.697Z,4628
2017-12-14T09:27:08.193Z,4260
2017-12-14T09:27:33.685Z,4100
2017-12-14T09:27:59.206Z,3996
2017-12-14T09:28:24.711Z,3700
2017-12-14T09:28:50.241Z,3120
2017-12-14T09:29:15.654Z,2856
2017-12-14T09:29:41.124Z,2668
2017-12-14T09:30:06.619Z,2608
2017-12-14T09:31:15.341Z,2372
2017-12-14T09:31:40.826Z,2256
2017-12-14T09:32:06.310Z,2436
2017-12-14T09:32:31.777Z,2640
2017-12-14T09:32:57.293Z,2576
2017-12-14T09:33:22.795Z,2912
2017-12-14T09:33:48.302Z,3164
2017-12-14T09:34:13.754Z,3520
2017-12-14T09:34:39.227Z,3832
2017-12-14T09:35:04.708Z,3504
2017-12-14T09:35:30.195Z,3156
2017-12-14T09:35:55.696Z,2820
2017-12-14T09:36:21.180Z,2672
2017-12-14T09:36:46.714Z,2812
2017-12-14T09:37:12.231Z,3016
2017-12-14T09:37:37.741Z,3196
2017-12-14T09:38:03.235Z,2880
2017-12-14T09:38:28.732Z,2632
2017-12-14T09:38:54.207Z,2448
2017-12-14T09:39:19.717Z,2552
2017-12-14T09:39:45.179Z,2440
2017-12-14T09:40:10.674Z,1908
2017-12-14T09:40:36.141Z,1616
2017-12-14T09:41:01.623Z,1520
2017-12-14T09:41:27.131Z,1384
2017-12-14T09:41:52.603Z,1344
2017-12-14T09:42:18.123Z,1356
2017-12-14T09:43:37.051Z,1316
2017-12-14T09:44:02.549Z,1344
2017-12-14T09:44:28.062Z,1560
2017-12-14T09:44:53.516Z,1548
2017-12-14T09:45:18.999Z,1412
2017-12-14T09:45:44.482Z,1348
2017-12-14T09:46:09.947Z,1300
2017-12-14T09:46:35.448Z,1268
2017-12-14T09:47:00.942Z,1188
2017-12-14T09:47:26.435Z,1264
2017-12-14T09:47:51.915Z,1232
2017-12-14T09:48:17.406Z,1052
2017-12-14T09:49:26.116Z,860
2017-12-14T09:49:51.601Z,992
2017-12-14T09:50:17.093Z,1072
2017-12-14T09:50:42.594Z,1128
2017-12-14T09:51:08.050Z,1256
2017-12-14T09:51:33.567Z,1256
2017-12-14T09:51:59.046Z,1312
2017-12-14T09:52:24.512Z,1156
2017-12-14T09:52:50.033Z,1060
2017-12-14T09:53:15.610Z,1044
2017-12-14T09:53:41.083Z,1076
2017-12-14T09:54:06.578Z,1080
2017-12-14T09:54:32.067Z,1084
2017-12-14T09:54:57.546Z,1072
2017-12-14T09:55:23.051Z,1052
2017-12-14T09:55:48.516Z,996
2017-12-14T09:56:14.046Z,1156
2017-12-14T09:56:39.538Z,1180
2017-12-14T09:57:05.057Z,1164
2017-12-14T09:57:30.547Z,1188
2017-12-14T09:57:56.034Z,1196
2017-12-14T09:58:21.499Z,1100
2017-12-14T09:58:47.011Z,992
2017-12-14T09:59:12.506Z,1024
2017-12-14T09:59:38.028Z,1388
2017-12-14T10:00:03.532Z,1712
2017-12-14T10:00:28.959Z,1584
2017-12-14T10:00:54.448Z,1672
2017-12-14T10:01:19.922Z,1684
2017-12-14T10:01:45.422Z,1688
2017-12-14T10:02:10.933Z,1796
2017-12-14T10:02:36.427Z,1796
2017-12-14T10:03:01.914Z,2040
2017-12-14T10:03:27.424Z,2048
2017-12-14T10:03:52.922Z,1712
2017-12-14T10:04:18.600Z,1544
2017-12-14T10:04:44.495Z,1616
2017-12-14T10:05:09.950Z,1540
2017-12-14T10:05:35.450Z,1300
2017-12-14T10:06:00.942Z,1232
2017-12-14T10:06:26.437Z,1120
2017-12-14T10:07:39.724Z,1056
2017-12-14T10:08:05.207Z,964
2017-12-14T10:08:30.710Z,980
2017-12-14T10:08:56.178Z,968
2017-12-14T10:09:21.669Z,1144
2017-12-14T10:09:47.165Z,1300
2017-12-14T10:10:12.665Z,1520
2017-12-14T10:10:38.162Z,1536
2017-12-14T10:11:03.661Z,1544
2017-12-14T10:11:29.164Z,1652
2017-12-14T10:11:54.665Z,1624
2017-12-14T10:12:20.139Z,1716
2017-12-14T10:13:44.148Z,1528
2017-12-14T10:14:09.644Z,1424
2017-12-14T10:14:35.139Z,1436
2017-12-14T10:15:00.649Z,1380
2017-12-14T10:15:26.123Z,1328
2017-12-14T10:15:51.624Z,1200
2017-12-14T10:16:17.099Z,1112
2017-12-14T10:16:42.620Z,1168
2017-12-14T10:17:51.283Z,1040
2017-12-14T10:18:16.792Z,976
2017-12-14T10:18:42.300Z,1008
2017-12-14T10:19:07.827Z,988
2017-12-14T10:19:33.348Z,936
2017-12-14T10:19:58.852Z,900
2017-12-14T10:20:24.372Z,888
2017-12-14T10:20:49.888Z,928
2017-12-14T10:21:15.353Z,956
2017-12-14T10:21:40.828Z,964
2017-12-14T10:22:06.340Z,840
2017-12-14T10:22:31.869Z,876
2017-12-14T10:22:57.364Z,724
2017-12-14T10:23:22.833Z,724
2017-12-14T10:23:48.351Z,760
2017-12-14T10:24:13.824Z,764
2017-12-14T10:24:39.321Z,796
2017-12-14T10:25:04.825Z,784
2017-12-14T10:25:30.300Z,648
2017-12-14T10:25:55.789Z,700
2017-12-14T10:26:21.253Z,708
2017-12-14T10:26:46.771Z,772
2017-12-14T10:27:12.275Z,736
2017-12-14T10:27:37.764Z,648
2017-12-14T10:28:03.248Z,576
2017-12-14T10:28:28.770Z,736
2017-12-14T10:28:54.267Z,800
2017-12-14T10:29:19.777Z,860
2017-12-14T10:29:45.293Z,808
2017-12-14T10:30:10.768Z,760
2017-12-14T10:30:36.278Z,688
2017-12-14T10:31:01.777Z,792
2017-12-14T10:31:27.222Z,952
2017-12-14T10:31:52.749Z,1196
2017-12-14T10:32:18.237Z,1220
2017-12-14T10:32:43.728Z,1084
2017-12-14T10:33:09.215Z,1068
2017-12-14T10:33:34.716Z,1200
2017-12-14T10:34:00.231Z,1052
2017-12-14T10:34:25.728Z,1168
2017-12-14T10:34:51.238Z,1036
2017-12-14T10:35:16.737Z,868
2017-12-14T10:35:42.254Z,1088
2017-12-14T10:36:07.759Z,1160
2017-12-14T10:36:33.270Z,1040
2017-12-14T10:36:58.739Z,888
2017-12-14T10:37:24.243Z,972
2017-12-14T10:37:49.783Z,1344
2017-12-14T10:38:15.227Z,1408
2017-12-14T10:38:40.723Z,1176
2017-12-14T10:39:06.208Z,1060
2017-12-14T10:39:31.689Z,932
2017-12-14T10:39:57.218Z,896
2017-12-14T10:40:22.703Z,904
2017-12-14T10:40:48.176Z,988
2017-12-14T10:41:13.663Z,1052
2017-12-14T10:41:39.243Z,968
2017-12-14T10:42:04.793Z,1308
2017-12-14T10:42:30.254Z,1352
2017-12-14T10:42:55.753Z,1244
2017-12-14T10:43:21.290Z,1316
2017-12-14T10:43:46.761Z,1348
2017-12-14T10:44:12.291Z,1208
2017-12-14T10:44:37.783Z,1060
2017-12-14T10:45:03.266Z,1172
2017-12-14T10:45:28.770Z,1312
2017-12-14T10:45:54.241Z,1208
2017-12-14T10:46:19.761Z,1148
2017-12-14T10:46:45.237Z,884
2017-12-14T10:47:59.037Z,728
2017-12-14T10:48:24.520Z,776
2017-12-14T10:48:50.007Z,740
2017-12-14T10:49:15.491Z,804
2017-12-14T10:49:40.970Z,880
2017-12-14T10:50:06.495Z,1004
2017-12-14T10:51:25.396Z,624
2017-12-14T10:51:50.907Z,556
2017-12-14T10:52:16.388Z,588
2017-12-14T10:52:41.858Z,536
2017-12-14T10:53:07.337Z,480
2017-12-14T10:53:32.811Z,440
2017-12-14T10:53:58.336Z,444
2017-12-14T10:54:23.847Z,468
2017-12-14T10:54:49.326Z,472
2017-12-14T10:55:14.817Z,456
2017-12-14T10:55:40.342Z,500
2017-12-14T10:56:05.784Z,500
2017-12-14T10:56:31.270Z,564
2017-12-14T10:56:56.778Z,596
2017-12-14T10:57:22.246Z,628
2017-12-14T10:57:47.725Z,612
2017-12-14T10:58:13.196Z,692
2017-12-14T10:58:38.673Z,720
2017-12-14T10:59:04.204Z,688
2017-12-14T10:59:29.678Z,644
2017-12-14T10:59:55.183Z,636
2017-12-14T11:00:20.664Z,684
2017-12-14T11:00:46.182Z,624
2017-12-14T11:01:11.674Z,524
2017-12-14T11:01:37.163Z,464
2017-12-14T11:02:02.633Z,420
2017-12-14T11:02:28.144Z,428
2017-12-14T11:02:53.648Z,436
2017-12-14T11:03:19.153Z,420
2017-12-14T11:03:44.648Z,404
2017-12-14T11:04:10.117Z,376
2017-12-14T11:04:35.625Z,420
2017-12-14T11:05:01.134Z,456
2017-12-14T11:05:26.630Z,452
2017-12-14T11:05:52.092Z,468
2017-12-14T11:06:17.611Z,516
2017-12-14T11:06:43.129Z,520
2017-12-14T11:07:08.617Z,540
2017-12-14T11:07:34.123Z,544
2017-12-14T11:07:59.620Z,528
2017-12-14T11:08:25.133Z,552
2017-12-14T11:08:50.591Z,596
2017-12-14T11:09:16.098Z,592
2017-12-14T11:09:41.587Z,604
2017-12-14T11:10:07.094Z,568
2017-12-14T11:10:32.586Z,520
2017-12-14T11:10:58.083Z,480
2017-12-14T11:11:23.634Z,456
2017-12-14T11:11:49.119Z,460
2017-12-14T11:12:14.583Z,492
2017-12-14T11:12:40.268Z,568
2017-12-14T11:13:05.752Z,600
2017-12-14T11:13:31.232Z,580
2017-12-14T11:13:56.725Z,548
2017-12-14T11:14:22.209Z,556
2017-12-14T11:14:47.712Z,520
2017-12-14T11:15:13.211Z,488
2017-12-14T11:15:38.718Z,468
2017-12-14T11:16:04.220Z,500
2017-12-14T11:16:29.699Z,508
2017-12-14T11:16:55.168Z,532
2017-12-14T11:17:20.665Z,596
2017-12-14T11:17:46.153Z,644
2017-12-14T11:18:11.645Z,676
2017-12-14T11:18:37.100Z,660
2017-12-14T11:19:02.644Z,640
2017-12-14T11:20:16.416Z,568